Time;durP1;ratioP1;P1;durP2;ratioP2;P2;SDS_P1;SDS_P2;PMS_P1;PMS_P2;Temp;Humidity;BMP_temperature;BMP_pressure;BME280_temperature;BME280_humidity;BME280_pressure;Samples;Min_cycle;Max_cycle;Signal;HPM_P1;HPM_P2
2022/08/06 00:00:23;;;;;;;7.43;3.27;;;;;;;-146.72;100.00;64895.28;5090712;28;20440;-72
2022/08/06 00:02:53;;;;;;;2.90;2.60;;;;;;;-146.72;100.00;64895.28;5090645;28;20990;-72
2022/08/06 00:05:20;;;;;;;3.43;3.13;;;;;;;-146.72;100.00;64895.28;5091035;28;20440;-72
2022/08/06 00:07:56;;;;;;;3.27;2.97;;;;;;;-146.72;100.00;64895.28;5074937;28;20467;-72
2022/08/06 00:10:25;;;;;;;3.60;3.30;;;;;;;-146.72;100.00;64895.28;5074745;28;20436;-73
2022/08/06 00:12:55;;;;;;;3.73;3.43;;;;;;;-146.72;100.00;64895.28;5074637;28;20408;-74
2022/08/06 00:15:21;;;;;;;3.77;3.47;;;;;;;-146.72;100.00;64895.28;5086511;28;20494;-73
2022/08/06 00:18:08;;;;;;;3.23;2.77;;;;;;;-146.72;100.00;64895.28;5058117;28;20453;-73
2022/08/06 00:20:38;;;;;;;3.03;2.73;;;;;;;-146.72;100.00;64895.28;5092356;28;20923;-73
2022/08/06 00:23:10;;;;;;;3.23;3.03;;;;;;;-146.72;100.00;64895.28;5058209;28;20474;-73
2022/08/06 00:25:41;;;;;;;3.13;2.83;;;;;;;-146.72;100.00;64895.28;5070387;28;20463;-73
2022/08/06 00:28:18;;;;;;;3.30;2.50;;;;;;;-146.72;100.00;64895.28;5070051;28;20456;-73
2022/08/06 00:30:46;;;;;;;6.20;3.70;;;;;;;-146.72;100.00;64895.28;5070341;28;20506;-73
2022/08/06 00:45:49;;;;;;;2.50;2.30;;;;;;;-146.72;100.00;64895.28;5055392;28;20440;-72
2022/08/06 00:48:16;;;;;;;3.00;2.80;;;;;;;-146.72;100.00;64895.28;5064748;28;20456;-73
2022/08/06 00:51:06;;;;;;;2.53;2.30;;;;;;;-146.72;100.00;64895.28;5089035;28;20818;-71
2022/08/06 00:53:44;;;;;;;2.30;2.20;;;;;;;-146.72;100.00;64895.28;5090188;28;20574;-73
2022/08/06 01:09:48;;;;;;;2.70;2.50;;;;;;;-146.72;100.00;64895.28;5070457;28;20446;-73
2022/08/06 01:12:27;;;;;;;4.83;4.43;;;;;;;-146.72;100.00;64895.28;5047825;28;20473;-73
2022/08/06 01:15:01;;;;;;;5.53;3.07;;;;;;;-146.72;100.00;64895.28;5082685;28;20494;-73
2022/08/06 01:17:42;;;;;;;3.60;3.30;;;;;;;-146.72;100.00;64895.28;5070852;28;20987;-73
2022/08/06 01:20:16;;;;;;;5.20;2.80;;;;;;;-146.72;100.00;64895.28;5070092;28;20453;-73
2022/08/06 01:23:38;;;;;;;4.10;3.80;;;;;;;-146.72;100.00;64895.28;5078247;28;20937;-74
2022/08/06 01:26:31;;;;;;;5.23;3.03;;;;;;;-146.72;100.00;64895.28;5057226;28;20481;-73
2022/08/06 01:29:04;;;;;;;3.90;3.40;;;;;;;-146.72;100.00;64895.28;5057688;28;20434;-73
2022/08/06 01:31:48;;;;;;;9.40;3.37;;;;;;;-146.72;100.00;64895.28;5085814;28;20835;-73
2022/08/06 01:34:38;;;;;;;3.37;3.07;;;;;;;-146.72;100.00;64895.28;5060460;28;20439;-73
2022/08/06 01:37:05;;;;;;;3.30;3.07;;;;;;;-146.72;100.00;64895.28;5073255;28;20533;-73
2022/08/06 01:39:33;;;;;;;3.63;3.33;;;;;;;-146.72;100.00;64895.28;5073442;28;20467;-73
2022/08/06 01:42:24;;;;;;;3.50;3.30;;;;;;;-146.72;100.00;64895.28;5053526;28;20451;-73
2022/08/06 01:45:06;;;;;;;4.07;3.67;;;;;;;-146.72;100.00;64895.28;5069290;28;20460;-73
2022/08/06 01:47:37;;;;;;;4.10;3.80;;;;;;;-146.72;100.00;64895.28;5056846;28;20452;-70
2022/08/06 01:50:41;;;;;;;7.70;4.87;;;;;;;-146.72;100.00;64895.28;5073122;28;20443;-73
2022/08/06 01:53:13;;;;;;;4.60;4.23;;;;;;;-146.72;100.00;64895.28;5074263;28;20970;-73
2022/08/06 01:56:00;;;;;;;4.00;3.60;;;;;;;-146.72;100.00;64895.28;5073148;28;20428;-74
2022/08/06 01:58:38;;;;;;;5.00;4.37;;;;;;;-146.72;100.00;64895.28;5073094;28;20844;-74
2022/08/06 02:01:12;;;;;;;4.53;4.13;;;;;;;-146.72;100.00;64895.28;5043521;28;20437;-74
2022/08/06 02:03:47;;;;;;;4.77;4.40;;;;;;;-146.72;100.00;64895.28;5084641;28;20456;-74
2022/08/06 02:06:29;;;;;;;4.60;4.17;;;;;;;-146.72;100.00;64895.28;5094420;28;20451;-74
2022/08/06 02:09:03;;;;;;;5.50;5.00;;;;;;;-146.72;100.00;64895.28;5102024;28;20423;-74
2022/08/06 02:12:03;;;;;;;5.60;5.10;;;;;;;-146.72;100.00;64895.28;5084915;28;20451;-74
2022/08/06 02:14:40;;;;;;;5.23;4.67;;;;;;;-146.72;100.00;64895.28;5075758;28;20430;-75
2022/08/06 02:17:12;;;;;;;8.17;4.70;;;;;;;-146.72;100.00;64895.28;5079809;28;20819;-75
2022/08/06 02:19:49;;;;;;;4.70;3.97;;;;;;;-146.72;100.00;64895.28;5066642;28;20532;-75
2022/08/06 02:22:38;;;;;;;4.23;3.93;;;;;;;-146.72;100.00;64895.28;5039448;28;20548;-75
2022/08/06 02:25:11;;;;;;;7.03;4.37;;;;;;;-146.72;100.00;64895.28;5080932;28;20500;-75
2022/08/06 02:27:56;;;;;;;5.13;4.60;;;;;;;-146.72;100.00;64895.28;5072879;28;20448;-75
2022/08/06 02:30:29;;;;;;;5.07;4.67;;;;;;;-146.72;100.00;64895.28;5087224;28;20420;-75
2022/08/06 02:33:03;;;;;;;5.67;5.27;;;;;;;-146.72;100.00;64895.28;5086564;28;20470;-75
2022/08/06 02:35:36;;;;;;;7.77;4.87;;;;;;;-146.72;100.00;64895.28;5085943;28;20490;-75
2022/08/06 02:38:31;;;;;;;6.97;6.47;;;;;;;-146.72;100.00;64895.28;5086613;28;20520;-75
2022/08/06 02:41:05;;;;;;;10.00;7.27;;;;;;;-146.72;100.00;64895.28;5060758;28;20432;-75
2022/08/06 02:43:36;;;;;;;7.60;7.00;;;;;;;-146.72;100.00;64895.28;5089101;28;20559;-75
2022/08/06 02:46:21;;;;;;;10.13;7.50;;;;;;;-146.72;100.00;64895.28;5072444;28;20838;-75
2022/08/06 02:49:01;;;;;;;8.33;7.53;;;;;;;-146.72;100.00;64895.28;5064787;28;20931;-75
2022/08/06 02:51:34;;;;;;;7.10;6.40;;;;;;;-146.72;100.00;64895.28;5088117;28;20511;-75
2022/08/06 02:54:28;;;;;;;5.90;5.40;;;;;;;-146.72;100.00;64895.28;5072080;28;20913;-75
2022/08/06 02:57:03;;;;;;;6.73;6.23;;;;;;;-146.72;100.00;64895.28;5081275;28;20483;-73
2022/08/06 02:59:42;;;;;;;12.43;6.50;;;;;;;-146.72;100.00;64895.28;5078575;28;20443;-73
2022/08/06 03:02:11;;;;;;;6.73;6.13;;;;;;;-146.72;100.00;64895.28;5080595;28;20452;-73
2022/08/06 03:04:46;;;;;;;8.47;7.60;;;;;;;-146.72;100.00;64895.28;5085838;28;20472;-72
2022/08/06 03:07:26;;;;;;;7.87;7.07;;;;;;;-146.72;100.00;64895.28;5085522;28;20474;-73
2022/08/06 03:09:58;;;;;;;11.90;8.00;;;;;;;-146.72;100.00;64895.28;5081050;28;20439;-72
2022/08/06 03:12:26;;;;;;;9.50;8.60;;;;;;;-146.72;100.00;64895.28;5068612;28;20885;-72
2022/08/06 03:14:59;;;;;;;9.40;8.13;;;;;;;-146.72;100.00;64895.28;5068511;28;20448;-72
2022/08/06 03:17:37;;;;;;;11.07;9.57;;;;;;;-146.72;100.00;64895.28;5066173;28;20458;-73
2022/08/06 03:20:05;;;;;;;9.90;8.90;;;;;;;-146.72;100.00;64895.28;5085001;28;20443;-73
2022/08/06 03:22:36;;;;;;;11.20;10.20;;;;;;;-146.72;100.00;64895.28;5088271;28;20464;-72
2022/08/06 03:25:12;;;;;;;11.20;10.10;;;;;;;-146.72;100.00;64895.28;5069296;28;20482;-72
2022/08/06 03:27:41;;;;;;;9.70;8.90;;;;;;;-146.72;100.00;64895.28;5083969;28;20482;-72
2022/08/06 03:30:20;;;;;;;11.23;10.30;;;;;;;-146.72;100.00;64895.28;5041927;28;20723;-72
2022/08/06 03:33:02;;;;;;;14.40;11.43;;;;;;;-146.72;100.00;64895.28;5084746;28;20519;-72
2022/08/06 03:35:51;;;;;;;13.00;11.80;;;;;;;-146.72;100.00;64895.28;5085650;28;20822;-72
2022/08/06 03:38:21;;;;;;;13.00;11.40;;;;;;;-146.72;100.00;64895.28;5074724;28;20986;-72
2022/08/06 03:40:56;;;;;;;12.13;11.10;;;;;;;-146.72;100.00;64895.28;5084908;28;20411;-72
2022/08/06 03:43:22;;;;;;;12.53;11.33;;;;;;;-146.72;100.00;64895.28;5072120;28;20452;-72
2022/08/06 03:45:58;;;;;;;13.00;11.80;;;;;;;-146.72;100.00;64895.28;5088453;28;20442;-72
2022/08/06 03:48:31;;;;;;;11.77;10.77;;;;;;;-146.72;100.00;64895.28;5092407;28;20846;-71
2022/08/06 03:51:16;;;;;;;12.80;11.70;;;;;;;-146.72;100.00;64895.28;5107959;28;20435;-71
2022/08/06 03:54:06;;;;;;;12.47;11.27;;;;;;;-146.72;100.00;64895.28;5090991;28;20485;-71
2022/08/06 03:56:36;;;;;;;13.77;12.40;;;;;;;-146.72;100.00;64895.28;5090885;28;20466;-71
2022/08/06 03:59:06;;;;;;;14.10;12.67;;;;;;;-146.72;100.00;64895.28;5074331;28;20474;-71
2022/08/06 04:01:36;;;;;;;13.53;12.23;;;;;;;-146.72;100.00;64895.28;5091986;28;20435;-72
2022/08/06 04:04:17;;;;;;;11.67;10.67;;;;;;;-146.72;100.00;64895.28;5090661;28;21062;-71
2022/08/06 04:06:58;;;;;;;12.20;11.10;;;;;;;-146.72;100.00;64895.28;5091853;28;20944;-71
2022/08/06 04:09:29;;;;;;;14.50;12.43;;;;;;;-146.72;100.00;64895.28;5107788;28;20476;-71
2022/08/06 04:12:17;;;;;;;13.50;12.10;;;;;;;-146.72;100.00;64895.28;5076008;28;20523;-71
2022/08/06 04:15:06;;;;;;;12.83;11.73;;;;;;;-146.72;100.00;64895.28;5086390;28;20991;-72
2022/08/06 04:17:38;;;;;;;12.30;11.33;;;;;;;-146.72;100.00;64895.28;5073812;28;20554;-72
2022/08/06 04:20:11;;;;;;;10.73;9.83;;;;;;;-146.72;100.00;64895.28;5093725;28;20475;-72
2022/08/06 04:22:38;;;;;;;12.07;11.07;;;;;;;-146.72;100.00;64895.28;5062684;28;20435;-73
2022/08/06 04:25:27;;;;;;;8.63;7.93;;;;;;;-146.72;100.00;64895.28;5086543;28;20566;-72
2022/08/06 04:27:55;;;;;;;6.63;5.77;;;;;;;-146.72;100.00;64895.28;5090757;28;20463;-72
2022/08/06 04:30:26;;;;;;;6.73;6.23;;;;;;;-146.72;100.00;64895.28;5092827;28;20436;-71
2022/08/06 04:32:53;;;;;;;5.97;5.47;;;;;;;-146.72;100.00;64895.28;5093348;28;20457;-72
2022/08/06 04:35:29;;;;;;;5.53;5.13;;;;;;;-146.72;100.00;64895.28;5096606;28;20433;-72
2022/08/06 04:38:21;;;;;;;8.93;4.07;;;;;;;-146.72;100.00;64895.28;5085699;28;20534;-73
2022/08/06 04:40:56;;;;;;;4.97;4.57;;;;;;;-146.72;100.00;64895.28;5084316;28;20796;-72
2022/08/06 04:43:24;;;;;;;7.33;4.43;;;;;;;-146.72;100.00;64895.28;5070528;28;20986;-72
2022/08/06 04:46:11;;;;;;;4.90;4.50;;;;;;;-146.72;100.00;64895.28;5073281;28;20479;-72
2022/08/06 04:48:45;;;;;;;4.20;3.90;;;;;;;-146.72;100.00;64895.28;5082882;28;20423;-72
2022/08/06 04:51:15;;;;;;;4.67;4.30;;;;;;;-146.72;100.00;64895.28;5076424;28;20435;-73
2022/08/06 04:54:05;;;;;;;6.60;5.20;;;;;;;-146.72;100.00;64895.28;5090376;28;20483;-73
2022/08/06 04:56:32;;;;;;;5.13;4.30;;;;;;;-146.72;100.00;64895.28;5079651;28;20447;-73
2022/08/06 04:59:08;;;;;;;5.70;5.20;;;;;;;-146.72;100.00;64895.28;5083273;28;20473;-73
2022/08/06 05:01:37;;;;;;;4.87;4.57;;;;;;;-146.72;100.00;64895.28;5053096;28;20440;-73
2022/08/06 05:04:23;;;;;;;8.60;4.73;;;;;;;-146.72;100.00;64895.28;5069632;28;20838;-73
2022/08/06 05:07:15;;;;;;;5.97;5.53;;;;;;;-146.72;100.00;64895.28;5071086;28;20476;-73
2022/08/06 05:09:43;;;;;;;5.70;4.30;;;;;;;-146.72;100.00;64895.28;5077790;28;20920;-73
2022/08/06 05:12:26;;;;;;;5.20;4.80;;;;;;;-146.72;100.00;64895.28;5057861;28;20429;-73
2022/08/06 05:15:08;;;;;;;5.00;4.70;;;;;;;-146.72;100.00;64895.28;5066664;28;20420;-73
2022/08/06 05:17:40;;;;;;;8.37;4.50;;;;;;;-146.72;100.00;64895.28;5079587;28;20956;-73
2022/08/06 05:20:19;;;;;;;5.37;4.87;;;;;;;-146.72;100.00;64895.28;5084357;28;20979;-74
2022/08/06 05:23:17;;;;;;;5.00;4.60;;;;;;;-146.72;100.00;64895.28;5086677;28;20993;-73
2022/08/06 05:25:48;;;;;;;4.80;4.40;;;;;;;-146.72;100.00;64895.28;5079075;28;20451;-74
2022/08/06 05:28:22;;;;;;;4.73;4.33;;;;;;;-146.72;100.00;64895.28;5067470;28;20485;-74
2022/08/06 05:30:53;;;;;;;4.50;4.10;;;;;;;-146.72;100.00;64895.28;5081912;28;20419;-73
2022/08/06 05:33:24;;;;;;;3.77;3.47;;;;;;;-146.72;100.00;64895.28;5077279;28;20518;-73
2022/08/06 05:35:56;;;;;;;3.70;3.40;;;;;;;-146.72;100.00;64895.28;5075974;28;20431;-73
2022/08/06 05:38:30;;;;;;;3.30;3.00;;;;;;;-146.72;100.00;64895.28;5083100;28;20444;-72
2022/08/06 05:40:58;;;;;;;5.07;2.40;;;;;;;-146.72;100.00;64895.28;5050528;28;20430;-71
2022/08/06 05:43:26;;;;;;;2.87;2.63;;;;;;;-146.72;100.00;64895.28;5069460;28;20848;-71
2022/08/06 05:46:20;;;;;;;2.63;2.43;;;;;;;-146.72;100.00;64895.28;5069476;28;20477;-71
2022/08/06 05:48:59;;;;;;;2.83;2.40;;;;;;;-146.72;100.00;64895.28;5070671;28;20515;-71
2022/08/06 05:51:37;;;;;;;2.33;2.13;;;;;;;-146.72;100.00;64895.28;5053006;28;20439;-73
2022/08/06 05:54:19;;;;;;;6.40;2.50;;;;;;;-146.72;100.00;64895.28;5086309;28;20476;-75
2022/08/06 05:56:48;;;;;;;3.53;3.23;;;;;;;-146.72;100.00;64895.28;5060827;28;20452;-74
2022/08/06 05:59:27;;;;;;;4.57;3.30;;;;;;;-146.72;100.00;64895.28;5084036;28;20904;-73
2022/08/06 06:02:06;;;;;;;3.10;2.53;;;;;;;-146.72;100.00;64895.28;5083965;28;20415;-73
2022/08/06 06:04:33;;;;;;;4.67;2.60;;;;;;;-146.72;100.00;64895.28;5079230;28;20580;-73
2022/08/06 06:07:01;;;;;;;3.00;2.20;;;;;;;-146.72;100.00;64895.28;5059097;28;20506;-73
2022/08/06 06:09:35;;;;;;;3.90;2.30;;;;;;;-146.72;100.00;64895.28;5082917;28;20949;-73
2022/08/06 06:12:25;;;;;;;2.43;2.23;;;;;;;-146.72;100.00;64895.28;5058774;28;20451;-73
2022/08/06 06:15:00;;;;;;;2.80;2.03;;;;;;;-146.72;100.00;64895.28;5074278;28;20451;-73
2022/08/06 06:18:06;;;;;;;2.00;1.90;;;;;;;-146.72;100.00;64895.28;5093005;28;20467;-72
2022/08/06 06:20:57;;;;;;;5.53;1.87;;;;;;;-146.72;100.00;64895.28;5061092;28;20427;-72
2022/08/06 06:23:53;;;;;;;4.33;2.10;;;;;;;-146.72;100.00;64895.28;5067447;28;20986;-73
2022/08/06 06:26:46;;;;;;;4.17;1.93;;;;;;;-146.72;100.00;64895.28;5077590;28;20514;-73
2022/08/06 06:29:32;;;;;;;2.50;2.07;;;;;;;-146.72;100.00;64895.28;5086916;28;20426;-73
2022/08/06 06:32:47;;;;;;;2.10;1.90;;;;;;;-146.72;100.00;64895.28;5081765;28;20527;-73
2022/08/06 06:35:31;;;;;;;1.63;1.53;;;;;;;-146.72;100.00;64895.28;5060220;28;20420;-72
2022/08/06 06:38:21;;;;;;;4.70;1.83;;;;;;;-146.72;100.00;64895.28;5059819;28;21013;-73
2022/08/06 06:41:02;;;;;;;2.50;1.77;;;;;;;-146.72;100.00;64895.28;5079533;28;20536;-73
2022/08/06 06:44:11;;;;;;;2.90;1.67;;;;;;;-146.72;100.00;64895.28;5085046;28;21129;-73
2022/08/06 06:46:54;;;;;;;2.60;1.80;;;;;;;-146.72;100.00;64895.28;5067453;28;20463;-73
2022/08/06 06:49:32;;;;;;;3.17;1.70;;;;;;;-146.72;100.00;64895.28;5085718;28;20454;-73
2022/08/06 06:52:22;;;;;;;4.67;1.97;;;;;;;-146.72;100.00;64895.28;5086964;28;20924;-73
2022/08/06 06:55:17;;;;;;;1.57;1.43;;;;;;;-146.72;100.00;64895.28;5081835;28;20431;-74
2022/08/06 06:58:05;;;;;;;2.27;1.60;;;;;;;-146.72;100.00;64895.28;5060462;28;20460;-73
2022/08/06 07:00:37;;;;;;;1.67;1.47;;;;;;;-146.72;100.00;64895.28;5058450;28;20453;-74
2022/08/06 07:03:13;;;;;;;3.17;1.37;;;;;;;-146.72;100.00;64895.28;5092031;28;20447;-73
2022/08/06 07:05:44;;;;;;;2.37;1.20;;;;;;;-146.72;100.00;64895.28;5091871;28;20490;-72
2022/08/06 07:08:33;;;;;;;3.13;1.30;;;;;;;-146.72;100.00;64895.28;5091703;28;20989;-72
2022/08/06 07:11:09;;;;;;;1.30;1.20;;;;;;;-146.72;100.00;64895.28;5088089;28;20420;-73
2022/08/06 07:13:38;;;;;;;3.30;1.53;;;;;;;-146.72;100.00;64895.28;5055079;28;20989;-73
2022/08/06 07:16:17;;;;;;;1.87;1.30;;;;;;;-146.72;100.00;64895.28;5071625;28;20499;-73
2022/08/06 07:19:04;;;;;;;1.83;1.13;;;;;;;-146.72;100.00;64895.28;5071782;28;20523;-73
2022/08/06 07:21:38;;;;;;;1.33;1.07;;;;;;;-146.72;100.00;64895.28;5054241;28;20944;-73
2022/08/06 07:24:11;;;;;;;1.33;1.23;;;;;;;-146.72;100.00;64895.28;5071668;28;20503;-73
2022/08/06 07:26:59;;;;;;;1.20;1.10;;;;;;;-146.72;100.00;64895.28;5071207;28;21068;-73
2022/08/06 07:29:30;;;;;;;2.70;1.30;;;;;;;-146.72;100.00;64895.28;5071323;28;20483;-73
2022/08/06 07:32:17;;;;;;;1.03;0.93;;;;;;;-146.72;100.00;64895.28;5071250;28;21068;-73
2022/08/06 07:34:59;;;;;;;2.30;1.33;;;;;;;-146.72;100.00;64895.28;5071215;28;20936;-73
2022/08/06 07:37:28;;;;;;;1.90;1.23;;;;;;;-146.72;100.00;64895.28;5072375;28;20880;-72
2022/08/06 07:40:08;;;;;;;1.10;1.00;;;;;;;-146.72;100.00;64895.28;5071034;28;20970;-72
2022/08/06 07:42:38;;;;;;;2.03;1.83;;;;;;;-146.72;100.00;64895.28;5087905;28;20518;-72
2022/08/06 07:45:08;;;;;;;1.20;1.10;;;;;;;-146.72;100.00;64895.28;5070895;28;20452;-72
2022/08/06 07:47:43;;;;;;;2.30;1.10;;;;;;;-146.72;100.00;64895.28;5055579;28;20482;-72
2022/08/06 07:50:23;;;;;;;1.20;1.10;;;;;;;-146.72;100.00;64895.28;5072133;28;20447;-72
2022/08/06 07:52:53;;;;;;;1.80;1.10;;;;;;;-146.72;100.00;64895.28;5071692;28;20960;-72
2022/08/06 07:55:24;;;;;;;1.67;1.13;;;;;;;-146.72;100.00;64895.28;5072626;28;20429;-72
2022/08/06 07:58:04;;;;;;;3.37;1.13;;;;;;;-146.72;100.00;64895.28;5057196;28;20877;-72
2022/08/06 08:00:32;;;;;;;1.30;1.10;;;;;;;-146.72;100.00;64895.28;5072503;28;20517;-72
2022/08/06 08:06:17;;;;;;;1.77;1.23;;;;;;;-146.72;100.00;64895.28;5072215;28;20486;-73
2022/08/06 08:08:56;;;;;;;1.30;1.10;;;;;;;-146.72;100.00;64895.28;5078092;28;20435;-73
2022/08/06 08:11:25;;;;;;;1.47;1.10;;;;;;;-146.72;100.00;64895.28;5079866;28;20453;-72
2022/08/06 08:14:21;;;;;;;3.43;2.20;;;;;;;-146.72;100.00;64895.28;5081380;28;20453;-72
2022/08/06 08:16:50;;;;;;;3.70;1.33;;;;;;;-146.72;100.00;64895.28;5080245;28;21057;-72
2022/08/06 08:19:32;;;;;;;2.40;1.20;;;;;;;-146.72;100.00;64895.28;5071753;28;20479;-72
2022/08/06 08:22:15;;;;;;;5.47;1.33;;;;;;;-146.72;100.00;64895.28;5083738;28;20428;-72
2022/08/06 08:24:44;;;;;;;2.33;1.10;;;;;;;-146.72;100.00;64895.28;5101418;28;20459;-72
2022/08/06 08:27:21;;;;;;;1.57;1.10;;;;;;;-146.72;100.00;64895.28;5094723;28;20471;-72
2022/08/06 08:30:03;;;;;;;1.33;1.20;;;;;;;-146.72;100.00;64895.28;5090881;28;20467;-73
2022/08/06 08:32:31;;;;;;;3.20;1.20;;;;;;;-146.72;100.00;64895.28;5092434;28;20990;-72
2022/08/06 08:34:59;;;;;;;1.43;1.33;;;;;;;-146.72;100.00;64895.28;5081853;28;20442;-72
2022/08/06 08:37:26;;;;;;;3.37;1.50;;;;;;;-146.72;100.00;64895.28;5094311;28;20486;-72
2022/08/06 08:39:58;;;;;;;1.73;1.20;;;;;;;-146.72;100.00;64895.28;5102430;28;20555;-72
2022/08/06 08:42:35;;;;;;;1.77;1.57;;;;;;;-146.72;100.00;64895.28;5099600;28;20507;-72
2022/08/06 08:45:04;;;;;;;1.50;1.40;;;;;;;-146.72;100.00;64895.28;5083584;28;20467;-72
2022/08/06 08:47:49;;;;;;;1.87;1.10;;;;;;;-146.72;100.00;64895.28;5070437;28;20460;-72
2022/08/06 08:50:30;;;;;;;2.40;1.33;;;;;;;-146.72;100.00;64895.28;5087300;28;20436;-72
2022/08/06 08:53:09;;;;;;;1.33;1.13;;;;;;;-146.72;100.00;64895.28;5053585;28;21023;-72
2022/08/06 08:55:37;;;;;;;5.43;1.20;;;;;;;-146.72;100.00;64895.28;5068790;28;20992;-72
2022/08/06 08:58:23;;;;;;;1.73;1.03;;;;;;;-146.72;100.00;64895.28;5090004;28;20982;-72
2022/08/06 09:01:10;;;;;;;2.23;1.00;;;;;;;-146.72;100.00;64895.28;5090644;28;20446;-72
2022/08/06 09:03:57;;;;;;;2.33;1.10;;;;;;;-146.72;100.00;64895.28;5090281;28;20526;-73
2022/08/06 09:06:28;;;;;;;5.27;1.70;;;;;;;-146.72;100.00;64895.28;5091050;28;20562;-73
2022/08/06 09:09:02;;;;;;;1.73;1.30;;;;;;;-146.72;100.00;64895.28;5090092;28;20469;-72
2022/08/06 09:11:32;;;;;;;1.40;1.30;;;;;;;-146.72;100.00;64895.28;5073379;28;20444;-72
2022/08/06 09:14:20;;;;;;;3.30;1.70;;;;;;;-146.72;100.00;64895.28;5042274;28;20436;-73
2022/08/06 09:16:49;;;;;;;1.73;1.10;;;;;;;-146.72;100.00;64895.28;5066116;28;20518;-74
2022/08/06 09:19:16;;;;;;;2.50;1.30;;;;;;;-146.72;100.00;64895.28;5053538;28;20443;-73
2022/08/06 09:21:46;;;;;;;3.13;1.30;;;;;;;-146.72;100.00;64895.28;5069966;28;20460;-73
2022/08/06 09:24:17;;;;;;;2.13;1.27;;;;;;;-146.72;100.00;64895.28;5081512;28;21065;-74
2022/08/06 09:27:12;;;;;;;2.03;1.30;;;;;;;-146.72;100.00;64895.28;5055431;28;20472;-74
2022/08/06 09:30:02;;;;;;;3.43;1.10;;;;;;;-146.72;100.00;64895.28;5076930;28;20466;-74
2022/08/06 09:32:49;;;;;;;2.60;0.93;;;;;;;-146.72;100.00;64895.28;5095002;28;20444;-74
2022/08/06 09:35:30;;;;;;;2.90;1.77;;;;;;;-146.72;100.00;64895.28;5090717;28;20458;-75
2022/08/06 09:38:11;;;;;;;1.10;1.00;;;;;;;-146.72;100.00;64895.28;5092126;28;20566;-74
2022/08/06 09:41:02;;;;;;;2.80;1.40;;;;;;;-146.72;100.00;64895.28;5062902;28;20429;-74
2022/08/06 09:43:33;;;;;;;3.67;1.60;;;;;;;-146.72;100.00;64895.28;5072279;28;20439;-75
2022/08/06 09:46:47;;;;;;;2.40;1.33;;;;;;;-146.72;100.00;64895.28;5061217;28;20866;-74
2022/08/06 09:49:17;;;;;;;1.10;1.00;;;;;;;-146.72;100.00;64895.28;5058163;28;20443;-74
2022/08/06 09:52:16;;;;;;;2.50;1.33;;;;;;;-146.72;100.00;64895.28;5067048;28;20448;-74
2022/08/06 09:54:48;;;;;;;2.27;1.40;;;;;;;-146.72;100.00;64895.28;5061793;28;20906;-74
2022/08/06 09:57:23;;;;;;;1.20;1.10;;;;;;;-146.72;100.00;64895.28;5057638;28;20456;-74
2022/08/06 10:00:05;;;;;;;2.47;1.50;;;;;;;-146.72;100.00;64895.28;5073691;28;20433;-74
2022/08/06 10:02:41;;;;;;;1.30;1.10;;;;;;;-146.72;100.00;64895.28;5073521;28;20481;-75
2022/08/06 10:05:19;;;;;;;1.30;1.20;;;;;;;-146.72;100.00;64895.28;5059151;28;20548;-74
2022/08/06 10:08:00;;;;;;;4.40;1.33;;;;;;;-146.72;100.00;64895.28;5084760;28;20452;-74
2022/08/06 10:10:48;;;;;;;2.70;1.67;;;;;;;-146.72;100.00;64895.28;5087271;28;20519;-75
2022/08/06 10:13:26;;;;;;;2.30;1.50;;;;;;;-146.72;100.00;64895.28;5068758;28;20427;-74
2022/08/06 10:16:19;;;;;;;1.73;1.13;;;;;;;-146.72;100.00;64895.28;5083959;28;20471;-74
2022/08/06 10:18:49;;;;;;;1.30;1.20;;;;;;;-146.72;100.00;64895.28;5088116;28;20486;-74
2022/08/06 10:21:32;;;;;;;2.57;1.50;;;;;;;-146.72;100.00;64895.28;5073677;28;20523;-74
2022/08/06 10:24:11;;;;;;;1.40;1.30;;;;;;;-146.72;100.00;64895.28;5083453;28;20432;-76
2022/08/06 10:26:41;;;;;;;1.57;1.47;;;;;;;-146.72;100.00;64895.28;5072219;28;20483;-76
2022/08/06 10:29:10;;;;;;;5.93;1.30;;;;;;;-146.72;100.00;64895.28;5072432;28;20480;-76
2022/08/06 10:31:40;;;;;;;2.37;1.03;;;;;;;-146.72;100.00;64895.28;5075250;28;20518;-76
2022/08/06 10:34:15;;;;;;;2.60;1.20;;;;;;;-146.72;100.00;64895.28;5076105;28;20476;-76
2022/08/06 10:36:42;;;;;;;1.77;1.30;;;;;;;-146.72;100.00;64895.28;5075853;28;20451;-76
2022/08/06 10:39:10;;;;;;;1.90;1.80;;;;;;;-146.72;100.00;64895.28;5092691;28;20851;-76
2022/08/06 10:41:58;;;;;;;3.40;1.70;;;;;;;-146.72;100.00;64895.28;5092838;28;20514;-76
2022/08/06 10:44:34;;;;;;;5.07;1.43;;;;;;;-146.72;100.00;64895.28;5059079;28;20447;-76
2022/08/06 10:47:08;;;;;;;3.97;1.93;;;;;;;-146.72;100.00;64895.28;5072085;28;20472;-75
2022/08/06 10:49:38;;;;;;;1.20;1.10;;;;;;;-146.72;100.00;64895.28;5072081;28;20940;-75
2022/08/06 10:52:25;;;;;;;2.27;1.47;;;;;;;-146.72;100.00;64895.28;5058121;28;20958;-75
2022/08/06 10:54:53;;;;;;;3.13;1.73;;;;;;;-146.72;100.00;64895.28;5055246;28;20852;-76
2022/08/06 10:57:21;;;;;;;2.33;1.40;;;;;;;-146.72;100.00;64895.28;5071764;28;20887;-76
2022/08/06 11:00:05;;;;;;;2.23;1.60;;;;;;;-146.72;100.00;64895.28;5071951;28;20479;-76
2022/08/06 11:02:36;;;;;;;1.70;1.20;;;;;;;-146.72;100.00;64895.28;5076963;28;20518;-75
2022/08/06 11:05:17;;;;;;;2.50;1.53;;;;;;;-146.72;100.00;64895.28;5092226;28;20434;-76
2022/08/06 11:08:28;;;;;;;4.00;1.77;;;;;;;-146.72;100.00;64895.28;5076463;28;20829;-75
2022/08/06 11:11:34;;;;;;;1.67;1.20;;;;;;;-146.72;100.00;64895.28;5071783;28;20451;-76
2022/08/06 11:14:13;;;;;;;1.63;1.27;;;;;;;-146.72;100.00;64895.28;5043452;28;20424;-76
2022/08/06 11:16:58;;;;;;;1.23;1.13;;;;;;;-146.72;100.00;64895.28;5089580;28;20547;-75
2022/08/06 11:19:38;;;;;;;2.93;1.57;;;;;;;-146.72;100.00;64895.28;5058484;28;20432;-75
2022/08/06 11:22:45;;;;;;;5.13;1.50;;;;;;;-146.72;100.00;64895.28;5065840;28;20463;-76
2022/08/06 11:25:44;;;;;;;2.60;1.17;;;;;;;-146.72;100.00;64895.28;5068076;28;20437;-76
2022/08/06 11:28:17;;;;;;;3.50;1.40;;;;;;;-146.72;100.00;64895.28;5072562;28;20968;-74
2022/08/06 11:30:48;;;;;;;1.57;1.47;;;;;;;-146.72;100.00;64895.28;5054748;28;20444;-74
2022/08/06 11:33:32;;;;;;;2.83;1.60;;;;;;;-146.72;100.00;64895.28;5089945;28;20446;-74
2022/08/06 11:36:00;;;;;;;2.47;1.40;;;;;;;-146.72;100.00;64895.28;5092819;28;20420;-74
2022/08/06 11:38:47;;;;;;;3.23;1.33;;;;;;;-146.72;100.00;64895.28;5092876;28;20444;-74
2022/08/06 11:41:24;;;;;;;1.97;1.30;;;;;;;-146.72;100.00;64895.28;5053469;28;20562;-74
2022/08/06 11:44:15;;;;;;;2.07;1.13;;;;;;;-146.72;100.00;64895.28;5066713;28;20482;-74
2022/08/06 11:46:45;;;;;;;2.33;1.27;;;;;;;-146.72;100.00;64895.28;5070873;28;20484;-73
2022/08/06 11:49:23;;;;;;;1.97;1.10;;;;;;;-146.72;100.00;64895.28;5075324;28;20417;-74
2022/08/06 11:51:56;;;;;;;3.23;1.80;;;;;;;-146.72;100.00;64895.28;5086367;28;20500;-74
2022/08/06 11:54:34;;;;;;;1.50;1.20;;;;;;;-146.72;100.00;64895.28;5089928;28;20464;-74
2022/08/06 11:57:01;;;;;;;1.30;1.20;;;;;;;-146.72;100.00;64895.28;5089465;28;20457;-74
2022/08/06 11:59:30;;;;;;;1.57;1.23;;;;;;;-146.72;100.00;64895.28;5090408;28;20436;-74
2022/08/06 12:02:05;;;;;;;1.63;1.40;;;;;;;-146.72;100.00;64895.28;5090537;28;21021;-74
2022/08/06 12:04:35;;;;;;;3.40;1.40;;;;;;;-146.72;100.00;64895.28;5099244;28;20456;-75
2022/08/06 12:07:18;;;;;;;2.53;1.27;;;;;;;-146.72;100.00;64895.28;5092003;28;20475;-73
2022/08/06 12:10:02;;;;;;;1.30;1.20;;;;;;;-146.72;100.00;64895.28;5060203;28;20456;-74
2022/08/06 12:12:28;;;;;;;2.40;1.47;;;;;;;-146.72;100.00;64895.28;5073951;28;20441;-74
2022/08/06 12:14:56;;;;;;;2.63;1.37;;;;;;;-146.72;100.00;64895.28;5085841;28;20424;-74
2022/08/06 12:17:28;;;;;;;1.23;1.10;;;;;;;-146.72;100.00;64895.28;5063078;28;20809;-74
2022/08/06 12:20:10;;;;;;;2.93;1.60;;;;;;;-146.72;100.00;64895.28;5072845;28;20991;-74
2022/08/06 12:22:49;;;;;;;1.40;1.30;;;;;;;-146.72;100.00;64895.28;5056171;28;20436;-74
2022/08/06 12:25:17;;;;;;;1.40;1.10;;;;;;;-146.72;100.00;64895.28;5057805;28;20944;-75